Annapolis Royal, Canada
Current Conditions -  °F | °C
As of 5:00 PM on Wednesday 26 Nov 2014 (Local Time) from CYZX Reporting Station
Rain Showers Rain Showers  
Wind Chill: 43°   Ceiling: 4000
Heat Index: 43°   Visibility: 15mi
Dew Point: 30°   Wind: 2mph
Humidity: 61%   Direction: 110°ESE
Pressure: 30.19"   Gusts: NA
Location:  44.73°N, 65.52°W
Report Text: CYZX 262100Z 11002KT 15SM -SHRA SCT026 OVC040 06/M01 A3019 RMK SC3SC5 WNDY HILL 19002KT SLP224
Loading
Personal Weather Stations






























Interactive Weather Map New forecast layout! Learn more

10-Day Weather Forecast

Advertisements
Track Severe Weather on mobile